sensor_id;sensor_type;location;lat;lon;timestamp;P1;durP1;ratioP1;P2;durP2;ratioP2
28245;SDS011;15510;52.512;13.300;2023-03-15T00:00:41;5.77;;;1.33;;
28245;SDS011;15510;52.512;13.300;2023-03-15T00:03:07;6.23;;;1.53;;
28245;SDS011;15510;52.512;13.300;2023-03-15T00:05:33;8.60;;;1.40;;
28245;SDS011;15510;52.512;13.300;2023-03-15T00:08:08;8.63;;;1.90;;
28245;SDS011;15510;52.512;13.300;2023-03-15T00:10:39;9.50;;;1.50;;
28245;SDS011;15510;52.512;13.300;2023-03-15T00:13:08;5.23;;;1.93;;
28245;SDS011;15510;52.512;13.300;2023-03-15T00:15:34;8.77;;;1.50;;
28245;SDS011;15510;52.512;13.300;2023-03-15T00:18:01;10.53;;;1.93;;
28245;SDS011;15510;52.512;13.300;2023-03-15T00:20:27;11.50;;;2.37;;
28245;SDS011;15510;52.512;13.300;2023-03-15T00:22:54;5.60;;;1.47;;
28245;SDS011;15510;52.512;13.300;2023-03-15T00:25:20;6.13;;;1.10;;
28245;SDS011;15510;52.512;13.300;2023-03-15T00:27:46;7.23;;;2.17;;
28245;SDS011;15510;52.512;13.300;2023-03-15T00:30:11;3.97;;;1.40;;
28245;SDS011;15510;52.512;13.300;2023-03-15T00:32:37;12.87;;;1.63;;
28245;SDS011;15510;52.512;13.300;2023-03-15T00:35:03;6.80;;;1.60;;
28245;SDS011;15510;52.512;13.300;2023-03-15T00:37:29;9.63;;;1.40;;
28245;SDS011;15510;52.512;13.300;2023-03-15T00:39:55;7.63;;;1.93;;
28245;SDS011;15510;52.512;13.300;2023-03-15T00:42:21;7.10;;;1.50;;
28245;SDS011;15510;52.512;13.300;2023-03-15T00:44:51;8.93;;;1.73;;
28245;SDS011;15510;52.512;13.300;2023-03-15T00:47:17;9.03;;;1.73;;
28245;SDS011;15510;52.512;13.300;2023-03-15T00:49:45;8.50;;;2.20;;
28245;SDS011;15510;52.512;13.300;2023-03-15T00:52:11;9.63;;;1.40;;
28245;SDS011;15510;52.512;13.300;2023-03-15T00:54:37;7.90;;;1.97;;
28245;SDS011;15510;52.512;13.300;2023-03-15T00:57:02;12.43;;;1.37;;
28245;SDS011;15510;52.512;13.300;2023-03-15T00:59:29;3.83;;;1.33;;
28245;SDS011;15510;52.512;13.300;2023-03-15T01:02:05;4.73;;;1.27;;
28245;SDS011;15510;52.512;13.300;2023-03-15T01:04:31;8.80;;;1.50;;
28245;SDS011;15510;52.512;13.300;2023-03-15T01:06:57;8.93;;;1.50;;
28245;SDS011;15510;52.512;13.300;2023-03-15T01:09:23;9.40;;;2.03;;
28245;SDS011;15510;52.512;13.300;2023-03-15T01:11:49;8.87;;;1.20;;
28245;SDS011;15510;52.512;13.300;2023-03-15T01:14:15;10.20;;;1.40;;
28245;SDS011;15510;52.512;13.300;2023-03-15T01:16:43;8.73;;;1.73;;
28245;SDS011;15510;52.512;13.300;2023-03-15T01:19:10;7.70;;;1.47;;
28245;SDS011;15510;52.512;13.300;2023-03-15T01:21:36;6.03;;;1.27;;
28245;SDS011;15510;52.512;13.300;2023-03-15T01:24:02;5.57;;;1.63;;
28245;SDS011;15510;52.512;13.300;2023-03-15T01:26:28;9.50;;;1.67;;
28245;SDS011;15510;52.512;13.300;2023-03-15T01:28:53;7.23;;;1.70;;
28245;SDS011;15510;52.512;13.300;2023-03-15T01:31:20;9.20;;;1.30;;
28245;SDS011;15510;52.512;13.300;2023-03-15T01:33:48;7.30;;;1.40;;
28245;SDS011;15510;52.512;13.300;2023-03-15T01:36:14;6.33;;;1.27;;
28245;SDS011;15510;52.512;13.300;2023-03-15T01:38:40;6.70;;;1.30;;
28245;SDS011;15510;52.512;13.300;2023-03-15T01:41:06;9.77;;;1.43;;
28245;SDS011;15510;52.512;13.300;2023-03-15T01:43:32;12.17;;;1.70;;
28245;SDS011;15510;52.512;13.300;2023-03-15T01:48:27;3.33;;;1.33;;
28245;SDS011;15510;52.512;13.300;2023-03-15T01:51:00;7.13;;;1.43;;
28245;SDS011;15510;52.512;13.300;2023-03-15T01:53:29;5.10;;;1.30;;
28245;SDS011;15510;52.512;13.300;2023-03-15T01:55:58;5.83;;;1.50;;
28245;SDS011;15510;52.512;13.300;2023-03-15T01:58:32;10.00;;;1.20;;
28245;SDS011;15510;52.512;13.300;2023-03-15T02:01:00;7.73;;;1.70;;
28245;SDS011;15510;52.512;13.300;2023-03-15T02:03:29;3.60;;;1.20;;
28245;SDS011;15510;52.512;13.300;2023-03-15T02:06:03;13.53;;;1.53;;
28245;SDS011;15510;52.512;13.300;2023-03-15T02:08:55;7.37;;;1.47;;
28245;SDS011;15510;52.512;13.300;2023-03-15T02:11:29;5.20;;;1.50;;
28245;SDS011;15510;52.512;13.300;2023-03-15T02:13:55;6.43;;;1.33;;
28245;SDS011;15510;52.512;13.300;2023-03-15T02:16:23;8.97;;;1.60;;
28245;SDS011;15510;52.512;13.300;2023-03-15T02:19:04;7.07;;;1.40;;
28245;SDS011;15510;52.512;13.300;2023-03-15T02:21:54;8.07;;;1.70;;
28245;SDS011;15510;52.512;13.300;2023-03-15T02:27:36;6.17;;;1.10;;
28245;SDS011;15510;52.512;13.300;2023-03-15T02:30:04;7.93;;;1.47;;
28245;SDS011;15510;52.512;13.300;2023-03-15T02:32:31;7.10;;;1.20;;
28245;SDS011;15510;52.512;13.300;2023-03-15T02:34:57;7.00;;;1.50;;
28245;SDS011;15510;52.512;13.300;2023-03-15T02:37:22;7.13;;;1.17;;
28245;SDS011;15510;52.512;13.300;2023-03-15T02:39:48;7.23;;;1.80;;
28245;SDS011;15510;52.512;13.300;2023-03-15T02:42:14;10.13;;;1.10;;
28245;SDS011;15510;52.512;13.300;2023-03-15T02:44:42;5.53;;;1.60;;
28245;SDS011;15510;52.512;13.300;2023-03-15T02:47:19;14.70;;;1.80;;
28245;SDS011;15510;52.512;13.300;2023-03-15T02:49:50;6.43;;;1.50;;
28245;SDS011;15510;52.512;13.300;2023-03-15T02:52:17;9.53;;;1.00;;
28245;SDS011;15510;52.512;13.300;2023-03-15T02:54:44;4.90;;;1.23;;
28245;SDS011;15510;52.512;13.300;2023-03-15T02:57:10;5.00;;;1.80;;
28245;SDS011;15510;52.512;13.300;2023-03-15T02:59:37;7.33;;;1.77;;
28245;SDS011;15510;52.512;13.300;2023-03-15T03:02:03;9.70;;;1.70;;
28245;SDS011;15510;52.512;13.300;2023-03-15T03:04:29;8.93;;;1.60;;
28245;SDS011;15510;52.512;13.300;2023-03-15T03:06:56;4.93;;;1.30;;
28245;SDS011;15510;52.512;13.300;2023-03-15T03:09:28;10.93;;;1.47;;
28245;SDS011;15510;52.512;13.300;2023-03-15T03:11:54;6.80;;;1.37;;
28245;SDS011;15510;52.512;13.300;2023-03-15T03:14:20;6.30;;;1.93;;
28245;SDS011;15510;52.512;13.300;2023-03-15T03:16:48;9.73;;;1.77;;
28245;SDS011;15510;52.512;13.300;2023-03-15T03:19:16;6.10;;;1.60;;
28245;SDS011;15510;52.512;13.300;2023-03-15T03:21:42;6.20;;;1.40;;
28245;SDS011;15510;52.512;13.300;2023-03-15T03:24:10;9.07;;;1.83;;
28245;SDS011;15510;52.512;13.300;2023-03-15T03:26:36;6.67;;;1.50;;
28245;SDS011;15510;52.512;13.300;2023-03-15T03:29:02;5.93;;;1.50;;
28245;SDS011;15510;52.512;13.300;2023-03-15T03:31:31;5.13;;;1.40;;
28245;SDS011;15510;52.512;13.300;2023-03-15T03:33:58;8.73;;;1.53;;
28245;SDS011;15510;52.512;13.300;2023-03-15T03:36:26;6.60;;;1.30;;
28245;SDS011;15510;52.512;13.300;2023-03-15T03:38:52;8.67;;;1.97;;
28245;SDS011;15510;52.512;13.300;2023-03-15T03:41:19;10.20;;;1.87;;
28245;SDS011;15510;52.512;13.300;2023-03-15T03:43:45;5.47;;;1.63;;
28245;SDS011;15510;52.512;13.300;2023-03-15T03:46:12;11.10;;;1.53;;
28245;SDS011;15510;52.512;13.300;2023-03-15T03:48:44;5.27;;;2.13;;
28245;SDS011;15510;52.512;13.300;2023-03-15T03:51:10;6.50;;;1.33;;
28245;SDS011;15510;52.512;13.300;2023-03-15T03:53:35;5.03;;;1.50;;
28245;SDS011;15510;52.512;13.300;2023-03-15T03:56:03;8.80;;;2.00;;
28245;SDS011;15510;52.512;13.300;2023-03-15T03:58:29;9.43;;;1.83;;
28245;SDS011;15510;52.512;13.300;2023-03-15T04:01:06;4.27;;;1.80;;
28245;SDS011;15510;52.512;13.300;2023-03-15T04:03:35;9.33;;;1.53;;
28245;SDS011;15510;52.512;13.300;2023-03-15T04:06:07;11.23;;;1.57;;
28245;SDS011;15510;52.512;13.300;2023-03-15T04:08:38;7.20;;;1.93;;
28245;SDS011;15510;52.512;13.300;2023-03-15T04:11:06;5.93;;;1.67;;
28245;SDS011;15510;52.512;13.300;2023-03-15T04:13:35;6.70;;;1.60;;
28245;SDS011;15510;52.512;13.300;2023-03-15T04:16:02;4.67;;;1.20;;
28245;SDS011;15510;52.512;13.300;2023-03-15T04:18:33;5.87;;;1.60;;
28245;SDS011;15510;52.512;13.300;2023-03-15T04:20:59;8.17;;;1.57;;
28245;SDS011;15510;52.512;13.300;2023-03-15T04:23:25;6.67;;;2.10;;
28245;SDS011;15510;52.512;13.300;2023-03-15T04:26:17;8.83;;;1.83;;
28245;SDS011;15510;52.512;13.300;2023-03-15T04:28:57;6.70;;;1.30;;
28245;SDS011;15510;52.512;13.300;2023-03-15T04:31:43;4.33;;;1.50;;
28245;SDS011;15510;52.512;13.300;2023-03-15T04:34:29;8.13;;;1.90;;
28245;SDS011;15510;52.512;13.300;2023-03-15T04:37:18;6.13;;;1.60;;
28245;SDS011;15510;52.512;13.300;2023-03-15T04:39:59;9.03;;;1.37;;
28245;SDS011;15510;52.512;13.300;2023-03-15T04:42:49;8.63;;;1.50;;
28245;SDS011;15510;52.512;13.300;2023-03-15T04:45:31;12.90;;;2.00;;
28245;SDS011;15510;52.512;13.300;2023-03-15T04:48:29;6.73;;;2.20;;
28245;SDS011;15510;52.512;13.300;2023-03-15T04:51:11;8.10;;;2.47;;
28245;SDS011;15510;52.512;13.300;2023-03-15T04:53:43;5.90;;;2.00;;
28245;SDS011;15510;52.512;13.300;2023-03-15T04:56:38;9.97;;;1.53;;
28245;SDS011;15510;52.512;13.300;2023-03-15T04:59:13;4.63;;;1.67;;
28245;SDS011;15510;52.512;13.300;2023-03-15T05:02:11;9.80;;;1.60;;
28245;SDS011;15510;52.512;13.300;2023-03-15T05:05:03;6.10;;;1.83;;
28245;SDS011;15510;52.512;13.300;2023-03-15T05:07:58;7.80;;;2.27;;
28245;SDS011;15510;52.512;13.300;2023-03-15T05:10:35;9.87;;;1.80;;
28245;SDS011;15510;52.512;13.300;2023-03-15T05:13:21;5.63;;;1.53;;
28245;SDS011;15510;52.512;13.300;2023-03-15T05:16:05;9.20;;;2.10;;
28245;SDS011;15510;52.512;13.300;2023-03-15T05:18:59;13.67;;;1.80;;
28245;SDS011;15510;52.512;13.300;2023-03-15T05:21:34;8.27;;;2.03;;
28245;SDS011;15510;52.512;13.300;2023-03-15T05:24:17;14.53;;;2.40;;
28245;SDS011;15510;52.512;13.300;2023-03-15T05:26:56;9.97;;;2.00;;
28245;SDS011;15510;52.512;13.300;2023-03-15T05:29:54;8.80;;;2.47;;
28245;SDS011;15510;52.512;13.300;2023-03-15T05:32:38;7.77;;;1.80;;
28245;SDS011;15510;52.512;13.300;2023-03-15T05:35:34;6.60;;;1.93;;
28245;SDS011;15510;52.512;13.300;2023-03-15T05:38:18;8.13;;;1.60;;
28245;SDS011;15510;52.512;13.300;2023-03-15T05:40:57;6.53;;;1.97;;
28245;SDS011;15510;52.512;13.300;2023-03-15T05:43:35;7.07;;;1.80;;
28245;SDS011;15510;52.512;13.300;2023-03-15T05:46:15;5.53;;;1.50;;
28245;SDS011;15510;52.512;13.300;2023-03-15T05:49:02;11.37;;;1.97;;
28245;SDS011;15510;52.512;13.300;2023-03-15T05:51:46;3.50;;;1.60;;
28245;SDS011;15510;52.512;13.300;2023-03-15T05:54:21;11.60;;;2.40;;
28245;SDS011;15510;52.512;13.300;2023-03-15T05:56:46;13.97;;;2.20;;
28245;SDS011;15510;52.512;13.300;2023-03-15T05:59:26;7.17;;;2.03;;
28245;SDS011;15510;52.512;13.300;2023-03-15T06:02:21;10.90;;;2.10;;
28245;SDS011;15510;52.512;13.300;2023-03-15T06:05:06;6.93;;;2.03;;
28245;SDS011;15510;52.512;13.300;2023-03-15T06:07:32;7.07;;;2.13;;
28245;SDS011;15510;52.512;13.300;2023-03-15T06:09:58;7.07;;;2.63;;
28245;SDS011;15510;52.512;13.300;2023-03-15T06:12:24;13.10;;;3.77;;
28245;SDS011;15510;52.512;13.300;2023-03-15T06:14:51;5.73;;;1.80;;
28245;SDS011;15510;52.512;13.300;2023-03-15T06:17:17;10.27;;;4.87;;
28245;SDS011;15510;52.512;13.300;2023-03-15T06:19:43;7.73;;;3.50;;
28245;SDS011;15510;52.512;13.300;2023-03-15T06:22:09;11.07;;;3.37;;
28245;SDS011;15510;52.512;13.300;2023-03-15T06:24:46;14.50;;;4.10;;
28245;SDS011;15510;52.512;13.300;2023-03-15T06:27:12;14.63;;;6.70;;
28245;SDS011;15510;52.512;13.300;2023-03-15T06:29:37;16.17;;;6.57;;
28245;SDS011;15510;52.512;13.300;2023-03-15T06:32:04;39.70;;;25.97;;
28245;SDS011;15510;52.512;13.300;2023-03-15T06:34:31;25.80;;;11.80;;
28245;SDS011;15510;52.512;13.300;2023-03-15T06:36:57;23.23;;;11.73;;
28245;SDS011;15510;52.512;13.300;2023-03-15T06:39:23;13.67;;;6.37;;
28245;SDS011;15510;52.512;13.300;2023-03-15T06:41:50;19.27;;;2.73;;
28245;SDS011;15510;52.512;13.300;2023-03-15T06:44:20;4.60;;;2.40;;
28245;SDS011;15510;52.512;13.300;2023-03-15T06:46:51;7.70;;;1.77;;
28245;SDS011;15510;52.512;13.300;2023-03-15T06:49:16;12.50;;;2.33;;
28245;SDS011;15510;52.512;13.300;2023-03-15T06:51:42;11.37;;;4.43;;
28245;SDS011;15510;52.512;13.300;2023-03-15T06:54:09;9.90;;;2.87;;
28245;SDS011;15510;52.512;13.300;2023-03-15T06:56:37;8.97;;;2.33;;
28245;SDS011;15510;52.512;13.300;2023-03-15T06:59:02;7.83;;;2.50;;
28245;SDS011;15510;52.512;13.300;2023-03-15T07:01:28;8.00;;;2.53;;
28245;SDS011;15510;52.512;13.300;2023-03-15T07:03:54;10.33;;;3.17;;
28245;SDS011;15510;52.512;13.300;2023-03-15T07:06:20;13.63;;;5.40;;
28245;SDS011;15510;52.512;13.300;2023-03-15T07:08:46;11.77;;;5.43;;
28245;SDS011;15510;52.512;13.300;2023-03-15T07:11:11;8.90;;;2.33;;
28245;SDS011;15510;52.512;13.300;2023-03-15T07:13:37;15.37;;;3.50;;
28245;SDS011;15510;52.512;13.300;2023-03-15T07:16:03;26.83;;;13.60;;
28245;SDS011;15510;52.512;13.300;2023-03-15T07:18:31;23.10;;;10.83;;
28245;SDS011;15510;52.512;13.300;2023-03-15T07:20:58;8.47;;;2.40;;
28245;SDS011;15510;52.512;13.300;2023-03-15T07:23:25;10.37;;;2.00;;
28245;SDS011;15510;52.512;13.300;2023-03-15T07:25:51;9.33;;;2.20;;
28245;SDS011;15510;52.512;13.300;2023-03-15T07:28:18;8.13;;;2.03;;
28245;SDS011;15510;52.512;13.300;2023-03-15T07:30:54;9.40;;;2.33;;
28245;SDS011;15510;52.512;13.300;2023-03-15T07:33:25;13.43;;;2.73;;
28245;SDS011;15510;52.512;13.300;2023-03-15T07:35:51;7.83;;;1.97;;
28245;SDS011;15510;52.512;13.300;2023-03-15T07:38:18;8.80;;;1.97;;
28245;SDS011;15510;52.512;13.300;2023-03-15T07:40:44;3.17;;;1.43;;
28245;SDS011;15510;52.512;13.300;2023-03-15T07:43:10;5.30;;;1.80;;
28245;SDS011;15510;52.512;13.300;2023-03-15T07:45:35;9.67;;;1.77;;
28245;SDS011;15510;52.512;13.300;2023-03-15T07:48:01;9.87;;;2.00;;
28245;SDS011;15510;52.512;13.300;2023-03-15T07:50:27;11.83;;;2.50;;
28245;SDS011;15510;52.512;13.300;2023-03-15T07:52:53;9.53;;;2.77;;
28245;SDS011;15510;52.512;13.300;2023-03-15T07:55:19;10.07;;;2.00;;
28245;SDS011;15510;52.512;13.300;2023-03-15T07:57:45;9.03;;;2.03;;
28245;SDS011;15510;52.512;13.300;2023-03-15T08:00:10;7.77;;;2.40;;
28245;SDS011;15510;52.512;13.300;2023-03-15T08:02:38;14.50;;;2.67;;
28245;SDS011;15510;52.512;13.300;2023-03-15T08:05:04;7.00;;;2.23;;
28245;SDS011;15510;52.512;13.300;2023-03-15T08:07:30;8.70;;;2.60;;
28245;SDS011;15510;52.512;13.300;2023-03-15T08:09:56;9.57;;;2.57;;
28245;SDS011;15510;52.512;13.300;2023-03-15T08:12:23;6.97;;;2.80;;
28245;SDS011;15510;52.512;13.300;2023-03-15T08:14:49;7.87;;;2.77;;
28245;SDS011;15510;52.512;13.300;2023-03-15T08:17:17;8.87;;;2.50;;
28245;SDS011;15510;52.512;13.300;2023-03-15T08:19:43;10.30;;;3.27;;
28245;SDS011;15510;52.512;13.300;2023-03-15T08:22:09;7.90;;;2.33;;
28245;SDS011;15510;52.512;13.300;2023-03-15T08:24:35;8.47;;;2.43;;
28245;SDS011;15510;52.512;13.300;2023-03-15T08:27:01;9.57;;;2.80;;
28245;SDS011;15510;52.512;13.300;2023-03-15T08:29:27;8.77;;;3.27;;
28245;SDS011;15510;52.512;13.300;2023-03-15T08:31:53;5.53;;;2.53;;
28245;SDS011;15510;52.512;13.300;2023-03-15T08:34:19;11.20;;;2.27;;
28245;SDS011;15510;52.512;13.300;2023-03-15T08:36:46;15.03;;;2.77;;
28245;SDS011;15510;52.512;13.300;2023-03-15T08:39:12;4.87;;;1.60;;
28245;SDS011;15510;52.512;13.300;2023-03-15T08:41:38;8.87;;;2.67;;
28245;SDS011;15510;52.512;13.300;2023-03-15T08:44:05;7.83;;;1.93;;
28245;SDS011;15510;52.512;13.300;2023-03-15T08:46:31;6.10;;;2.50;;
28245;SDS011;15510;52.512;13.300;2023-03-15T08:48:58;7.83;;;2.60;;
28245;SDS011;15510;52.512;13.300;2023-03-15T08:51:24;9.77;;;2.63;;
28245;SDS011;15510;52.512;13.300;2023-03-15T08:53:50;5.20;;;2.30;;
28245;SDS011;15510;52.512;13.300;2023-03-15T08:56:17;10.50;;;2.13;;
28245;SDS011;15510;52.512;13.300;2023-03-15T08:58:43;6.57;;;2.23;;
28245;SDS011;15510;52.512;13.300;2023-03-15T09:01:12;5.47;;;2.53;;
28245;SDS011;15510;52.512;13.300;2023-03-15T09:03:39;6.03;;;2.30;;
28245;SDS011;15510;52.512;13.300;2023-03-15T09:06:07;13.13;;;2.50;;
28245;SDS011;15510;52.512;13.300;2023-03-15T09:08:33;8.93;;;2.80;;
28245;SDS011;15510;52.512;13.300;2023-03-15T09:10:59;6.10;;;2.37;;
28245;SDS011;15510;52.512;13.300;2023-03-15T09:13:26;7.47;;;2.40;;
28245;SDS011;15510;52.512;13.300;2023-03-15T09:15:52;4.93;;;2.30;;
28245;SDS011;15510;52.512;13.300;2023-03-15T09:18:19;7.33;;;2.10;;
28245;SDS011;15510;52.512;13.300;2023-03-15T09:20:46;5.17;;;1.73;;
28245;SDS011;15510;52.512;13.300;2023-03-15T09:23:12;10.60;;;2.23;;
28245;SDS011;15510;52.512;13.300;2023-03-15T09:25:38;3.30;;;2.10;;
28245;SDS011;15510;52.512;13.300;2023-03-15T09:28:04;4.13;;;2.00;;
28245;SDS011;15510;52.512;13.300;2023-03-15T09:30:32;3.50;;;1.73;;
28245;SDS011;15510;52.512;13.300;2023-03-15T09:32:59;12.13;;;2.87;;
28245;SDS011;15510;52.512;13.300;2023-03-15T09:35:24;2.97;;;2.07;;
28245;SDS011;15510;52.512;13.300;2023-03-15T09:37:50;4.33;;;2.00;;
28245;SDS011;15510;52.512;13.300;2023-03-15T09:40:27;9.60;;;2.37;;
28245;SDS011;15510;52.512;13.300;2023-03-15T09:48:25;9.07;;;2.27;;
28245;SDS011;15510;52.512;13.300;2023-03-15T09:51:34;8.17;;;2.40;;
28245;SDS011;15510;52.512;13.300;2023-03-15T09:54:22;6.97;;;2.27;;
28245;SDS011;15510;52.512;13.300;2023-03-15T09:57:15;5.77;;;1.83;;
28245;SDS011;15510;52.512;13.300;2023-03-15T09:59:48;5.63;;;2.53;;
28245;SDS011;15510;52.512;13.300;2023-03-15T10:05:17;10.33;;;2.77;;
28245;SDS011;15510;52.512;13.300;2023-03-15T10:07:45;5.63;;;2.33;;
28245;SDS011;15510;52.512;13.300;2023-03-15T10:10:18;3.97;;;2.00;;
28245;SDS011;15510;52.512;13.300;2023-03-15T10:13:31;8.17;;;3.27;;
28245;SDS011;15510;52.512;13.300;2023-03-15T10:20:57;9.33;;;2.17;;
28245;SDS011;15510;52.512;13.300;2023-03-15T10:23:32;9.83;;;2.50;;
28245;SDS011;15510;52.512;13.300;2023-03-15T10:26:04;8.10;;;3.00;;
28245;SDS011;15510;52.512;13.300;2023-03-15T10:28:32;5.57;;;2.30;;
28245;SDS011;15510;52.512;13.300;2023-03-15T10:31:06;9.97;;;2.10;;
28245;SDS011;15510;52.512;13.300;2023-03-15T10:33:39;6.17;;;2.63;;
28245;SDS011;15510;52.512;13.300;2023-03-15T10:36:39;5.90;;;2.40;;
28245;SDS011;15510;52.512;13.300;2023-03-15T10:38:59;11.20;;;2.40;;
28245;SDS011;15510;52.512;13.300;2023-03-15T10:41:38;6.03;;;2.47;;
28245;SDS011;15510;52.512;13.300;2023-03-15T10:44:10;7.30;;;2.13;;
28245;SDS011;15510;52.512;13.300;2023-03-15T10:46:39;5.20;;;1.80;;
28245;SDS011;15510;52.512;13.300;2023-03-15T10:49:09;5.80;;;2.00;;
28245;SDS011;15510;52.512;13.300;2023-03-15T10:51:40;6.33;;;1.53;;
28245;SDS011;15510;52.512;13.300;2023-03-15T10:54:11;7.53;;;1.87;;
28245;SDS011;15510;52.512;13.300;2023-03-15T10:56:48;8.60;;;2.03;;
28245;SDS011;15510;52.512;13.300;2023-03-15T10:59:33;3.73;;;1.60;;
28245;SDS011;15510;52.512;13.300;2023-03-15T11:02:11;6.00;;;2.00;;
28245;SDS011;15510;52.512;13.300;2023-03-15T11:07:55;3.77;;;1.50;;
28245;SDS011;15510;52.512;13.300;2023-03-15T11:10:23;5.03;;;1.47;;
28245;SDS011;15510;52.512;13.300;2023-03-15T11:13:28;3.93;;;1.47;;
28245;SDS011;15510;52.512;13.300;2023-03-15T11:15:52;5.37;;;1.83;;
28245;SDS011;15510;52.512;13.300;2023-03-15T11:21:11;5.67;;;1.40;;
28245;SDS011;15510;52.512;13.300;2023-03-15T11:23:40;2.57;;;1.30;;
28245;SDS011;15510;52.512;13.300;2023-03-15T11:26:18;8.40;;;3.80;;
28245;SDS011;15510;52.512;13.300;2023-03-15T11:28:55;9.60;;;2.13;;
28245;SDS011;15510;52.512;13.300;2023-03-15T11:31:26;7.13;;;1.75;;
28245;SDS011;15510;52.512;13.300;2023-03-15T11:34:04;6.93;;;1.47;;
28245;SDS011;15510;52.512;13.300;2023-03-15T11:36:38;4.10;;;1.20;;
28245;SDS011;15510;52.512;13.300;2023-03-15T11:39:09;8.63;;;2.50;;
28245;SDS011;15510;52.512;13.300;2023-03-15T11:42:04;4.80;;;1.97;;
28245;SDS011;15510;52.512;13.300;2023-03-15T11:44:32;7.97;;;1.47;;
28245;SDS011;15510;52.512;13.300;2023-03-15T11:47:25;4.60;;;1.20;;
28245;SDS011;15510;52.512;13.300;2023-03-15T11:49:58;2.38;;;1.08;;
28245;SDS011;15510;52.512;13.300;2023-03-15T11:52:25;1.88;;;0.85;;
28245;SDS011;15510;52.512;13.300;2023-03-15T11:54:54;3.33;;;1.05;;
28245;SDS011;15510;52.512;13.300;2023-03-15T11:59:53;4.32;;;1.10;;
28245;SDS011;15510;52.512;13.300;2023-03-15T12:09:52;6.82;;;1.60;;
28245;SDS011;15510;52.512;13.300;2023-03-15T12:25:37;2.60;;;1.08;;
28245;SDS011;15510;52.512;13.300;2023-03-15T12:28:09;3.70;;;1.13;;
28245;SDS011;15510;52.512;13.300;2023-03-15T12:30:56;4.57;;;1.60;;
28245;SDS011;15510;52.512;13.300;2023-03-15T12:33:25;3.25;;;1.15;;
28245;SDS011;15510;52.512;13.300;2023-03-15T12:36:13;6.65;;;1.30;;
28245;SDS011;15510;52.512;13.300;2023-03-15T12:41:49;5.18;;;1.45;;
28245;SDS011;15510;52.512;13.300;2023-03-15T12:47:03;7.45;;;1.42;;
28245;SDS011;15510;52.512;13.300;2023-03-15T12:49:48;5.33;;;1.30;;
28245;SDS011;15510;52.512;13.300;2023-03-15T12:55:14;3.63;;;1.20;;
28245;SDS011;15510;52.512;13.300;2023-03-15T12:57:45;7.37;;;1.47;;
28245;SDS011;15510;52.512;13.300;2023-03-15T13:00:16;6.30;;;1.37;;
28245;SDS011;15510;52.512;13.300;2023-03-15T13:02:47;7.60;;;1.53;;
28245;SDS011;15510;52.512;13.300;2023-03-15T13:05:27;6.67;;;1.50;;
28245;SDS011;15510;52.512;13.300;2023-03-15T13:19:05;5.80;;;1.40;;
28245;SDS011;15510;52.512;13.300;2023-03-15T13:22:26;7.93;;;2.60;;
28245;SDS011;15510;52.512;13.300;2023-03-15T13:27:17;3.83;;;1.00;;
28245;SDS011;15510;52.512;13.300;2023-03-15T13:35:33;4.75;;;0.90;;
28245;SDS011;15510;52.512;13.300;2023-03-15T13:41:00;5.00;;;1.40;;
28245;SDS011;15510;52.512;13.300;2023-03-15T13:43:32;6.88;;;1.35;;
28245;SDS011;15510;52.512;13.300;2023-03-15T13:45:59;4.72;;;1.92;;
28245;SDS011;15510;52.512;13.300;2023-03-15T13:48:30;5.30;;;1.30;;
28245;SDS011;15510;52.512;13.300;2023-03-15T13:53:48;11.37;;;1.60;;
28245;SDS011;15510;52.512;13.300;2023-03-15T13:56:17;7.83;;;1.77;;
28245;SDS011;15510;52.512;13.300;2023-03-15T13:58:51;8.77;;;1.57;;
28245;SDS011;15510;52.512;13.300;2023-03-15T14:01:17;4.97;;;1.53;;
28245;SDS011;15510;52.512;13.300;2023-03-15T14:03:45;6.73;;;1.50;;
28245;SDS011;15510;52.512;13.300;2023-03-15T14:06:20;4.63;;;1.50;;
28245;SDS011;15510;52.512;13.300;2023-03-15T14:08:48;5.33;;;1.60;;
28245;SDS011;15510;52.512;13.300;2023-03-15T14:16:33;3.80;;;1.10;;
28245;SDS011;15510;52.512;13.300;2023-03-15T14:19:13;3.20;;;1.07;;
28245;SDS011;15510;52.512;13.300;2023-03-15T14:21:40;5.53;;;0.90;;
28245;SDS011;15510;52.512;13.300;2023-03-15T14:24:13;6.73;;;1.00;;
28245;SDS011;15510;52.512;13.300;2023-03-15T14:26:48;4.50;;;0.90;;
28245;SDS011;15510;52.512;13.300;2023-03-15T14:29:19;3.03;;;1.77;;
28245;SDS011;15510;52.512;13.300;2023-03-15T14:31:51;10.50;;;1.77;;
28245;SDS011;15510;52.512;13.300;2023-03-15T14:37:00;4.37;;;0.70;;
28245;SDS011;15510;52.512;13.300;2023-03-15T14:39:49;1.90;;;1.03;;
28245;SDS011;15510;52.512;13.300;2023-03-15T14:42:15;2.77;;;1.00;;
28245;SDS011;15510;52.512;13.300;2023-03-15T14:44:41;1.40;;;0.90;;
28245;SDS011;15510;52.512;13.300;2023-03-15T14:47:13;1.73;;;0.80;;
28245;SDS011;15510;52.512;13.300;2023-03-15T14:49:41;5.57;;;0.80;;
28245;SDS011;15510;52.512;13.300;2023-03-15T14:52:07;2.40;;;1.20;;
28245;SDS011;15510;52.512;13.300;2023-03-15T14:54:36;3.37;;;0.90;;
28245;SDS011;15510;52.512;13.300;2023-03-15T14:57:03;3.53;;;1.27;;
28245;SDS011;15510;52.512;13.300;2023-03-15T14:59:29;4.37;;;1.50;;
28245;SDS011;15510;52.512;13.300;2023-03-15T15:01:55;3.33;;;1.30;;
28245;SDS011;15510;52.512;13.300;2023-03-15T15:04:24;5.03;;;1.10;;
28245;SDS011;15510;52.512;13.300;2023-03-15T15:06:56;5.70;;;1.27;;
28245;SDS011;15510;52.512;13.300;2023-03-15T15:09:23;3.27;;;1.10;;
28245;SDS011;15510;52.512;13.300;2023-03-15T15:11:51;2.43;;;0.70;;
28245;SDS011;15510;52.512;13.300;2023-03-15T15:14:17;2.67;;;0.87;;
28245;SDS011;15510;52.512;13.300;2023-03-15T15:16:44;3.00;;;0.90;;
28245;SDS011;15510;52.512;13.300;2023-03-15T15:19:10;4.17;;;1.03;;
28245;SDS011;15510;52.512;13.300;2023-03-15T15:21:36;24.97;;;2.07;;
28245;SDS011;15510;52.512;13.300;2023-03-15T15:24:03;9.37;;;1.40;;
28245;SDS011;15510;52.512;13.300;2023-03-15T15:26:36;7.67;;;1.50;;
28245;SDS011;15510;52.512;13.300;2023-03-15T15:29:02;11.37;;;1.37;;
28245;SDS011;15510;52.512;13.300;2023-03-15T15:31:28;3.87;;;1.00;;
28245;SDS011;15510;52.512;13.300;2023-03-15T15:33:57;4.73;;;1.20;;
28245;SDS011;15510;52.512;13.300;2023-03-15T15:36:27;5.50;;;1.00;;
28245;SDS011;15510;52.512;13.300;2023-03-15T15:38:55;4.80;;;1.03;;
28245;SDS011;15510;52.512;13.300;2023-03-15T15:41:21;7.10;;;1.03;;
28245;SDS011;15510;52.512;13.300;2023-03-15T15:43:52;5.57;;;1.10;;
28245;SDS011;15510;52.512;13.300;2023-03-15T15:46:18;6.13;;;1.17;;
28245;SDS011;15510;52.512;13.300;2023-03-15T15:48:44;4.33;;;1.07;;
28245;SDS011;15510;52.512;13.300;2023-03-15T15:51:18;3.20;;;0.97;;
28245;SDS011;15510;52.512;13.300;2023-03-15T15:53:50;4.67;;;1.80;;
28245;SDS011;15510;52.512;13.300;2023-03-15T15:56:17;6.60;;;1.33;;
28245;SDS011;15510;52.512;13.300;2023-03-15T15:58:43;6.20;;;1.17;;
28245;SDS011;15510;52.512;13.300;2023-03-15T16:01:11;3.60;;;1.07;;
28245;SDS011;15510;52.512;13.300;2023-03-15T16:03:38;3.97;;;1.00;;
28245;SDS011;15510;52.512;13.300;2023-03-15T16:06:04;5.73;;;1.20;;
28245;SDS011;15510;52.512;13.300;2023-03-15T16:08:32;6.43;;;1.73;;
28245;SDS011;15510;52.512;13.300;2023-03-15T16:11:02;2.77;;;1.60;;
28245;SDS011;15510;52.512;13.300;2023-03-15T16:13:29;2.40;;;1.13;;
28245;SDS011;15510;52.512;13.300;2023-03-15T16:15:55;4.90;;;1.40;;
28245;SDS011;15510;52.512;13.300;2023-03-15T16:18:21;5.23;;;1.77;;
28245;SDS011;15510;52.512;13.300;2023-03-15T16:20:47;3.17;;;1.10;;
28245;SDS011;15510;52.512;13.300;2023-03-15T16:23:22;2.70;;;1.10;;
28245;SDS011;15510;52.512;13.300;2023-03-15T16:25:50;2.50;;;1.00;;